sensor_id;sensor_type;location;lat;lon;timestamp;P1;durP1;ratioP1;P2;durP2;ratioP2
4806;SDS011;2417;52.482;13.432;2022-08-11T00:01:09;25.77;;;7.07;;
4806;SDS011;2417;52.482;13.432;2022-08-11T00:03:41;13.77;;;6.10;;
4806;SDS011;2417;52.482;13.432;2022-08-11T00:06:09;12.90;;;4.63;;
4806;SDS011;2417;52.482;13.432;2022-08-11T00:08:39;17.90;;;6.77;;
4806;SDS011;2417;52.482;13.432;2022-08-11T00:11:08;7.33;;;3.20;;
4806;SDS011;2417;52.482;13.432;2022-08-11T00:13:39;16.07;;;5.83;;
4806;SDS011;2417;52.482;13.432;2022-08-11T00:16:11;9.20;;;4.40;;
4806;SDS011;2417;52.482;13.432;2022-08-11T00:18:41;9.00;;;3.53;;
4806;SDS011;2417;52.482;13.432;2022-08-11T00:21:09;8.43;;;3.80;;
4806;SDS011;2417;52.482;13.432;2022-08-11T00:23:45;9.20;;;3.57;;
4806;SDS011;2417;52.482;13.432;2022-08-11T00:26:14;11.27;;;3.80;;
4806;SDS011;2417;52.482;13.432;2022-08-11T00:28:43;10.10;;;4.10;;
4806;SDS011;2417;52.482;13.432;2022-08-11T00:31:20;9.60;;;3.90;;
4806;SDS011;2417;52.482;13.432;2022-08-11T00:33:49;11.30;;;3.47;;
4806;SDS011;2417;52.482;13.432;2022-08-11T00:36:18;14.57;;;4.20;;
4806;SDS011;2417;52.482;13.432;2022-08-11T00:38:51;9.07;;;4.00;;
4806;SDS011;2417;52.482;13.432;2022-08-11T00:41:28;10.87;;;3.70;;
4806;SDS011;2417;52.482;13.432;2022-08-11T00:46:54;8.37;;;3.40;;
4806;SDS011;2417;52.482;13.432;2022-08-11T00:49:28;8.93;;;3.70;;
4806;SDS011;2417;52.482;13.432;2022-08-11T00:52:00;12.90;;;3.50;;
4806;SDS011;2417;52.482;13.432;2022-08-11T00:57:28;8.57;;;3.80;;
4806;SDS011;2417;52.482;13.432;2022-08-11T01:00:07;6.80;;;2.90;;
4806;SDS011;2417;52.482;13.432;2022-08-11T01:02:43;9.03;;;3.00;;
4806;SDS011;2417;52.482;13.432;2022-08-11T01:05:33;21.03;;;11.30;;
4806;SDS011;2417;52.482;13.432;2022-08-11T01:08:17;12.70;;;5.67;;
4806;SDS011;2417;52.482;13.432;2022-08-11T01:11:01;8.20;;;3.37;;
4806;SDS011;2417;52.482;13.432;2022-08-11T01:19:28;10.60;;;4.93;;
4806;SDS011;2417;52.482;13.432;2022-08-11T01:31:33;12.07;;;3.40;;
4806;SDS011;2417;52.482;13.432;2022-08-11T01:34:18;6.83;;;3.17;;
4806;SDS011;2417;52.482;13.432;2022-08-11T01:37:10;9.40;;;3.70;;
4806;SDS011;2417;52.482;13.432;2022-08-11T01:42:39;8.60;;;2.90;;
4806;SDS011;2417;52.482;13.432;2022-08-11T01:45:33;7.00;;;3.30;;
4806;SDS011;2417;52.482;13.432;2022-08-11T01:48:05;8.00;;;3.17;;
4806;SDS011;2417;52.482;13.432;2022-08-11T01:50:47;9.40;;;3.17;;
4806;SDS011;2417;52.482;13.432;2022-08-11T01:53:25;17.03;;;3.00;;
4806;SDS011;2417;52.482;13.432;2022-08-11T01:55:59;13.03;;;3.70;;
4806;SDS011;2417;52.482;13.432;2022-08-11T01:58:30;12.23;;;3.50;;
4806;SDS011;2417;52.482;13.432;2022-08-11T02:01:22;7.97;;;3.00;;
4806;SDS011;2417;52.482;13.432;2022-08-11T02:03:55;6.83;;;3.00;;
4806;SDS011;2417;52.482;13.432;2022-08-11T02:06:28;14.70;;;3.23;;
4806;SDS011;2417;52.482;13.432;2022-08-11T02:09:18;12.80;;;3.97;;
4806;SDS011;2417;52.482;13.432;2022-08-11T02:11:47;13.50;;;3.33;;
4806;SDS011;2417;52.482;13.432;2022-08-11T02:14:20;8.83;;;3.13;;
4806;SDS011;2417;52.482;13.432;2022-08-11T02:16:54;10.80;;;3.43;;
4806;SDS011;2417;52.482;13.432;2022-08-11T02:19:25;13.80;;;3.83;;
4806;SDS011;2417;52.482;13.432;2022-08-11T02:22:18;11.67;;;3.30;;
4806;SDS011;2417;52.482;13.432;2022-08-11T02:25:09;10.63;;;4.00;;
4806;SDS011;2417;52.482;13.432;2022-08-11T02:27:44;8.77;;;4.10;;
4806;SDS011;2417;52.482;13.432;2022-08-11T02:30:15;11.00;;;3.13;;
4806;SDS011;2417;52.482;13.432;2022-08-11T02:32:45;11.13;;;3.73;;
4806;SDS011;2417;52.482;13.432;2022-08-11T02:35:35;8.47;;;3.70;;
4806;SDS011;2417;52.482;13.432;2022-08-11T02:38:11;17.23;;;4.03;;
4806;SDS011;2417;52.482;13.432;2022-08-11T02:40:45;8.20;;;4.03;;
4806;SDS011;2417;52.482;13.432;2022-08-11T02:43:19;9.57;;;4.10;;
4806;SDS011;2417;52.482;13.432;2022-08-11T02:45:50;10.73;;;4.10;;
4806;SDS011;2417;52.482;13.432;2022-08-11T02:48:28;9.60;;;4.13;;
4806;SDS011;2417;52.482;13.432;2022-08-11T02:51:18;10.00;;;3.70;;
4806;SDS011;2417;52.482;13.432;2022-08-11T02:53:49;8.63;;;3.30;;
4806;SDS011;2417;52.482;13.432;2022-08-11T02:56:26;15.03;;;3.63;;
4806;SDS011;2417;52.482;13.432;2022-08-11T02:58:58;9.73;;;3.97;;
4806;SDS011;2417;52.482;13.432;2022-08-11T03:01:47;16.33;;;3.93;;
4806;SDS011;2417;52.482;13.432;2022-08-11T03:04:17;9.33;;;4.10;;
4806;SDS011;2417;52.482;13.432;2022-08-11T03:06:48;13.87;;;4.13;;
4806;SDS011;2417;52.482;13.432;2022-08-11T03:09:16;13.83;;;3.60;;
4806;SDS011;2417;52.482;13.432;2022-08-11T03:11:51;10.13;;;3.93;;
4806;SDS011;2417;52.482;13.432;2022-08-11T03:14:42;16.93;;;4.00;;
4806;SDS011;2417;52.482;13.432;2022-08-11T03:17:31;11.30;;;3.80;;
4806;SDS011;2417;52.482;13.432;2022-08-11T03:20:10;9.03;;;3.73;;
4806;SDS011;2417;52.482;13.432;2022-08-11T03:22:46;9.33;;;4.13;;
4806;SDS011;2417;52.482;13.432;2022-08-11T03:25:18;6.33;;;3.60;;
4806;SDS011;2417;52.482;13.432;2022-08-11T03:28:01;15.70;;;4.07;;
4806;SDS011;2417;52.482;13.432;2022-08-11T03:30:33;16.20;;;3.97;;
4806;SDS011;2417;52.482;13.432;2022-08-11T03:33:08;10.80;;;3.80;;
4806;SDS011;2417;52.482;13.432;2022-08-11T03:36:03;7.70;;;3.60;;
4806;SDS011;2417;52.482;13.432;2022-08-11T03:38:35;7.60;;;3.80;;
4806;SDS011;2417;52.482;13.432;2022-08-11T03:41:13;12.10;;;3.87;;
4806;SDS011;2417;52.482;13.432;2022-08-11T03:44:31;9.73;;;3.83;;
4806;SDS011;2417;52.482;13.432;2022-08-11T03:47:11;8.63;;;4.30;;
4806;SDS011;2417;52.482;13.432;2022-08-11T03:49:48;9.80;;;4.50;;
4806;SDS011;2417;52.482;13.432;2022-08-11T03:52:21;9.30;;;4.30;;
4806;SDS011;2417;52.482;13.432;2022-08-11T03:54:53;19.33;;;4.70;;
4806;SDS011;2417;52.482;13.432;2022-08-11T03:57:41;12.57;;;4.60;;
4806;SDS011;2417;52.482;13.432;2022-08-11T04:00:27;18.27;;;4.50;;
4806;SDS011;2417;52.482;13.432;2022-08-11T04:03:04;13.00;;;5.57;;
4806;SDS011;2417;52.482;13.432;2022-08-11T04:05:48;21.83;;;4.53;;
4806;SDS011;2417;52.482;13.432;2022-08-11T04:08:46;13.70;;;5.40;;
4806;SDS011;2417;52.482;13.432;2022-08-11T04:14:22;19.13;;;4.90;;
4806;SDS011;2417;52.482;13.432;2022-08-11T04:17:26;14.90;;;5.50;;
4806;SDS011;2417;52.482;13.432;2022-08-11T04:20:03;20.40;;;4.90;;
4806;SDS011;2417;52.482;13.432;2022-08-11T04:22:44;16.47;;;5.30;;
4806;SDS011;2417;52.482;13.432;2022-08-11T04:25:27;23.57;;;5.50;;
4806;SDS011;2417;52.482;13.432;2022-08-11T04:30:57;13.20;;;5.30;;
4806;SDS011;2417;52.482;13.432;2022-08-11T04:33:54;17.50;;;5.53;;
4806;SDS011;2417;52.482;13.432;2022-08-11T04:39:42;25.03;;;4.93;;
4806;SDS011;2417;52.482;13.432;2022-08-11T04:42:24;14.40;;;4.90;;
4806;SDS011;2417;52.482;13.432;2022-08-11T04:45:38;12.13;;;4.60;;
4806;SDS011;2417;52.482;13.432;2022-08-11T04:48:34;31.73;;;5.97;;
4806;SDS011;2417;52.482;13.432;2022-08-11T04:51:31;15.03;;;5.57;;
4806;SDS011;2417;52.482;13.432;2022-08-11T04:54:24;16.40;;;5.43;;
4806;SDS011;2417;52.482;13.432;2022-08-11T04:57:13;18.07;;;5.67;;
4806;SDS011;2417;52.482;13.432;2022-08-11T05:00:06;23.00;;;5.90;;
4806;SDS011;2417;52.482;13.432;2022-08-11T05:03:02;24.17;;;6.30;;
4806;SDS011;2417;52.482;13.432;2022-08-11T05:05:39;27.87;;;7.20;;
4806;SDS011;2417;52.482;13.432;2022-08-11T05:11:24;22.80;;;6.40;;
4806;SDS011;2417;52.482;13.432;2022-08-11T05:14:02;17.03;;;5.97;;
4806;SDS011;2417;52.482;13.432;2022-08-11T05:16:59;17.10;;;6.57;;
4806;SDS011;2417;52.482;13.432;2022-08-11T05:19:48;17.10;;;6.83;;
4806;SDS011;2417;52.482;13.432;2022-08-11T05:22:35;22.27;;;6.90;;
4806;SDS011;2417;52.482;13.432;2022-08-11T05:25:22;16.70;;;6.00;;
4806;SDS011;2417;52.482;13.432;2022-08-11T05:28:31;19.27;;;6.20;;
4806;SDS011;2417;52.482;13.432;2022-08-11T05:31:18;32.67;;;6.07;;
4806;SDS011;2417;52.482;13.432;2022-08-11T05:34:07;16.13;;;5.97;;
4806;SDS011;2417;52.482;13.432;2022-08-11T05:36:54;17.20;;;5.97;;
4806;SDS011;2417;52.482;13.432;2022-08-11T05:39:44;20.97;;;6.23;;
4806;SDS011;2417;52.482;13.432;2022-08-11T05:42:30;20.43;;;7.20;;
4806;SDS011;2417;52.482;13.432;2022-08-11T05:45:18;24.10;;;7.27;;
4806;SDS011;2417;52.482;13.432;2022-08-11T05:48:27;14.07;;;6.47;;
4806;SDS011;2417;52.482;13.432;2022-08-11T05:51:14;14.47;;;6.13;;
4806;SDS011;2417;52.482;13.432;2022-08-11T05:53:59;22.43;;;7.07;;
4806;SDS011;2417;52.482;13.432;2022-08-11T05:56:55;17.13;;;7.13;;
4806;SDS011;2417;52.482;13.432;2022-08-11T05:59:25;11.33;;;6.17;;
4806;SDS011;2417;52.482;13.432;2022-08-11T06:01:59;27.07;;;6.90;;
4806;SDS011;2417;52.482;13.432;2022-08-11T06:04:28;16.73;;;6.90;;
4806;SDS011;2417;52.482;13.432;2022-08-11T06:06:57;23.63;;;6.50;;
4806;SDS011;2417;52.482;13.432;2022-08-11T06:09:26;15.57;;;7.30;;
4806;SDS011;2417;52.482;13.432;2022-08-11T06:11:56;11.00;;;6.30;;
4806;SDS011;2417;52.482;13.432;2022-08-11T06:14:24;12.43;;;6.50;;
4806;SDS011;2417;52.482;13.432;2022-08-11T06:16:53;21.90;;;7.10;;
4806;SDS011;2417;52.482;13.432;2022-08-11T06:19:28;14.87;;;6.77;;
4806;SDS011;2417;52.482;13.432;2022-08-11T06:21:57;22.10;;;7.20;;
4806;SDS011;2417;52.482;13.432;2022-08-11T06:24:25;22.47;;;6.83;;
4806;SDS011;2417;52.482;13.432;2022-08-11T06:26:54;22.03;;;7.07;;
4806;SDS011;2417;52.482;13.432;2022-08-11T06:29:45;12.20;;;6.10;;
4806;SDS011;2417;52.482;13.432;2022-08-11T06:32:26;18.87;;;6.43;;
4806;SDS011;2417;52.482;13.432;2022-08-11T06:35:00;23.50;;;7.13;;
4806;SDS011;2417;52.482;13.432;2022-08-11T06:37:34;29.47;;;7.13;;
4806;SDS011;2417;52.482;13.432;2022-08-11T06:40:08;25.90;;;8.53;;
4806;SDS011;2417;52.482;13.432;2022-08-11T06:42:46;27.60;;;7.30;;
4806;SDS011;2417;52.482;13.432;2022-08-11T06:45:17;40.13;;;7.20;;
4806;SDS011;2417;52.482;13.432;2022-08-11T06:47:47;14.60;;;6.40;;
4806;SDS011;2417;52.482;13.432;2022-08-11T06:50:17;21.07;;;6.83;;
4806;SDS011;2417;52.482;13.432;2022-08-11T06:53:04;16.93;;;6.53;;
4806;SDS011;2417;52.482;13.432;2022-08-11T06:55:33;14.60;;;6.00;;
4806;SDS011;2417;52.482;13.432;2022-08-11T06:58:25;17.40;;;6.80;;
4806;SDS011;2417;52.482;13.432;2022-08-11T07:01:11;17.20;;;5.63;;
4806;SDS011;2417;52.482;13.432;2022-08-11T07:03:41;16.77;;;6.10;;
4806;SDS011;2417;52.482;13.432;2022-08-11T07:06:17;21.43;;;6.70;;
4806;SDS011;2417;52.482;13.432;2022-08-11T07:14:58;18.63;;;5.60;;
4806;SDS011;2417;52.482;13.432;2022-08-11T07:17:48;15.40;;;5.87;;
4806;SDS011;2417;52.482;13.432;2022-08-11T07:20:37;11.93;;;5.90;;
4806;SDS011;2417;52.482;13.432;2022-08-11T07:23:30;11.07;;;4.90;;
4806;SDS011;2417;52.482;13.432;2022-08-11T07:26:17;10.97;;;5.00;;
4806;SDS011;2417;52.482;13.432;2022-08-11T07:29:03;16.57;;;5.10;;
4806;SDS011;2417;52.482;13.432;2022-08-11T07:31:33;12.30;;;5.87;;
4806;SDS011;2417;52.482;13.432;2022-08-11T07:34:10;17.87;;;5.40;;
4806;SDS011;2417;52.482;13.432;2022-08-11T07:36:45;11.33;;;4.90;;
4806;SDS011;2417;52.482;13.432;2022-08-11T07:39:15;11.40;;;4.57;;
4806;SDS011;2417;52.482;13.432;2022-08-11T07:41:45;16.40;;;4.60;;
4806;SDS011;2417;52.482;13.432;2022-08-11T07:44:14;13.80;;;4.80;;
4806;SDS011;2417;52.482;13.432;2022-08-11T07:46:43;19.20;;;4.80;;
4806;SDS011;2417;52.482;13.432;2022-08-11T07:49:30;13.03;;;5.20;;
4806;SDS011;2417;52.482;13.432;2022-08-11T07:52:15;13.27;;;4.53;;
4806;SDS011;2417;52.482;13.432;2022-08-11T07:54:59;25.47;;;11.63;;
4806;SDS011;2417;52.482;13.432;2022-08-11T07:57:29;10.80;;;4.50;;
4806;SDS011;2417;52.482;13.432;2022-08-11T08:00:35;10.17;;;4.93;;
4806;SDS011;2417;52.482;13.432;2022-08-11T08:03:26;17.13;;;4.43;;
4806;SDS011;2417;52.482;13.432;2022-08-11T08:06:19;16.47;;;5.37;;
4806;SDS011;2417;52.482;13.432;2022-08-11T08:09:05;13.53;;;4.37;;
4806;SDS011;2417;52.482;13.432;2022-08-11T08:11:53;11.43;;;3.97;;
4806;SDS011;2417;52.482;13.432;2022-08-11T08:14:39;10.27;;;4.47;;
4806;SDS011;2417;52.482;13.432;2022-08-11T08:17:27;10.00;;;3.90;;
4806;SDS011;2417;52.482;13.432;2022-08-11T08:20:33;12.43;;;3.90;;
4806;SDS011;2417;52.482;13.432;2022-08-11T08:23:03;16.93;;;4.20;;
4806;SDS011;2417;52.482;13.432;2022-08-11T08:25:32;19.10;;;4.40;;
4806;SDS011;2417;52.482;13.432;2022-08-11T08:28:03;14.60;;;5.40;;
4806;SDS011;2417;52.482;13.432;2022-08-11T08:30:31;12.37;;;4.70;;
4806;SDS011;2417;52.482;13.432;2022-08-11T08:33:18;16.30;;;4.53;;
4806;SDS011;2417;52.482;13.432;2022-08-11T08:35:46;14.20;;;4.13;;
4806;SDS011;2417;52.482;13.432;2022-08-11T08:38:21;10.40;;;4.30;;
4806;SDS011;2417;52.482;13.432;2022-08-11T08:40:50;12.00;;;5.00;;
4806;SDS011;2417;52.482;13.432;2022-08-11T08:43:23;14.23;;;4.73;;
4806;SDS011;2417;52.482;13.432;2022-08-11T08:45:52;13.37;;;4.43;;
4806;SDS011;2417;52.482;13.432;2022-08-11T08:48:22;6.93;;;4.57;;
4806;SDS011;2417;52.482;13.432;2022-08-11T08:50:51;11.60;;;4.03;;
4806;SDS011;2417;52.482;13.432;2022-08-11T08:53:38;13.77;;;5.40;;
4806;SDS011;2417;52.482;13.432;2022-08-11T08:56:24;16.03;;;4.70;;
4806;SDS011;2417;52.482;13.432;2022-08-11T08:58:55;10.70;;;5.13;;
4806;SDS011;2417;52.482;13.432;2022-08-11T09:01:23;10.33;;;4.53;;
4806;SDS011;2417;52.482;13.432;2022-08-11T09:03:52;10.67;;;6.07;;
4806;SDS011;2417;52.482;13.432;2022-08-11T09:06:33;6.57;;;3.83;;
4806;SDS011;2417;52.482;13.432;2022-08-11T09:09:01;11.63;;;4.10;;
4806;SDS011;2417;52.482;13.432;2022-08-11T09:11:30;9.70;;;6.23;;
4806;SDS011;2417;52.482;13.432;2022-08-11T09:14:18;8.37;;;3.80;;
4806;SDS011;2417;52.482;13.432;2022-08-11T09:16:46;6.50;;;3.23;;
4806;SDS011;2417;52.482;13.432;2022-08-11T09:19:16;5.53;;;2.83;;
4806;SDS011;2417;52.482;13.432;2022-08-11T09:21:44;6.77;;;3.80;;
4806;SDS011;2417;52.482;13.432;2022-08-11T09:24:33;7.30;;;3.30;;
4806;SDS011;2417;52.482;13.432;2022-08-11T09:27:19;7.10;;;3.90;;
4806;SDS011;2417;52.482;13.432;2022-08-11T09:29:49;7.30;;;3.00;;
4806;SDS011;2417;52.482;13.432;2022-08-11T09:32:18;13.90;;;5.80;;
4806;SDS011;2417;52.482;13.432;2022-08-11T09:34:47;9.30;;;6.13;;
4806;SDS011;2417;52.482;13.432;2022-08-11T09:37:18;7.57;;;2.93;;
4806;SDS011;2417;52.482;13.432;2022-08-11T09:40:22;9.00;;;4.83;;
4806;SDS011;2417;52.482;13.432;2022-08-11T09:42:58;12.00;;;6.20;;
4806;SDS011;2417;52.482;13.432;2022-08-11T09:45:46;13.47;;;7.60;;
4806;SDS011;2417;52.482;13.432;2022-08-11T09:48:17;8.77;;;4.53;;
4806;SDS011;2417;52.482;13.432;2022-08-11T09:50:46;5.60;;;3.00;;
4806;SDS011;2417;52.482;13.432;2022-08-11T09:53:15;8.80;;;3.40;;
4806;SDS011;2417;52.482;13.432;2022-08-11T09:56:04;8.03;;;4.03;;
4806;SDS011;2417;52.482;13.432;2022-08-11T09:58:52;17.37;;;3.50;;
4806;SDS011;2417;52.482;13.432;2022-08-11T10:01:21;15.50;;;4.53;;
4806;SDS011;2417;52.482;13.432;2022-08-11T10:03:55;8.17;;;3.90;;
4806;SDS011;2417;52.482;13.432;2022-08-11T10:06:27;11.57;;;2.87;;
4806;SDS011;2417;52.482;13.432;2022-08-11T10:09:20;8.53;;;3.23;;
4806;SDS011;2417;52.482;13.432;2022-08-11T10:11:51;8.03;;;3.13;;
4806;SDS011;2417;52.482;13.432;2022-08-11T10:14:23;10.10;;;3.70;;
4806;SDS011;2417;52.482;13.432;2022-08-11T10:17:12;10.00;;;3.37;;
4806;SDS011;2417;52.482;13.432;2022-08-11T10:19:41;6.97;;;3.00;;
4806;SDS011;2417;52.482;13.432;2022-08-11T10:22:27;8.17;;;3.70;;
4806;SDS011;2417;52.482;13.432;2022-08-11T10:25:16;6.40;;;3.00;;
4806;SDS011;2417;52.482;13.432;2022-08-11T10:28:03;7.17;;;3.20;;
4806;SDS011;2417;52.482;13.432;2022-08-11T10:30:51;4.87;;;3.07;;
4806;SDS011;2417;52.482;13.432;2022-08-11T10:33:40;5.17;;;2.60;;
4806;SDS011;2417;52.482;13.432;2022-08-11T10:36:38;6.50;;;3.23;;
4806;SDS011;2417;52.482;13.432;2022-08-11T10:39:12;8.50;;;4.50;;
4806;SDS011;2417;52.482;13.432;2022-08-11T10:41:45;9.90;;;3.37;;
4806;SDS011;2417;52.482;13.432;2022-08-11T10:44:39;5.13;;;3.60;;
4806;SDS011;2417;52.482;13.432;2022-08-11T10:47:09;8.07;;;3.10;;
4806;SDS011;2417;52.482;13.432;2022-08-11T10:49:56;4.70;;;3.10;;
4806;SDS011;2417;52.482;13.432;2022-08-11T10:52:43;13.30;;;3.90;;
4806;SDS011;2417;52.482;13.432;2022-08-11T10:55:28;5.60;;;3.60;;
4806;SDS011;2417;52.482;13.432;2022-08-11T10:58:14;9.53;;;3.63;;
4806;SDS011;2417;52.482;13.432;2022-08-11T11:01:00;7.83;;;3.60;;
4806;SDS011;2417;52.482;13.432;2022-08-11T11:03:28;4.60;;;2.93;;
4806;SDS011;2417;52.482;13.432;2022-08-11T11:06:02;8.30;;;3.00;;
4806;SDS011;2417;52.482;13.432;2022-08-11T11:08:52;8.50;;;3.40;;
4806;SDS011;2417;52.482;13.432;2022-08-11T11:11:28;6.57;;;3.43;;
4806;SDS011;2417;52.482;13.432;2022-08-11T11:14:11;9.13;;;3.87;;
4806;SDS011;2417;52.482;13.432;2022-08-11T11:17:00;7.13;;;3.50;;
4806;SDS011;2417;52.482;13.432;2022-08-11T11:20:02;11.63;;;3.67;;
4806;SDS011;2417;52.482;13.432;2022-08-11T11:22:32;7.63;;;3.80;;
4806;SDS011;2417;52.482;13.432;2022-08-11T11:25:12;7.07;;;4.90;;
4806;SDS011;2417;52.482;13.432;2022-08-11T11:27:47;9.57;;;5.27;;
4806;SDS011;2417;52.482;13.432;2022-08-11T11:30:17;11.87;;;4.70;;
4806;SDS011;2417;52.482;13.432;2022-08-11T11:32:47;7.00;;;4.63;;
4806;SDS011;2417;52.482;13.432;2022-08-11T11:35:24;10.00;;;3.90;;
4806;SDS011;2417;52.482;13.432;2022-08-11T11:37:54;5.57;;;3.10;;
4806;SDS011;2417;52.482;13.432;2022-08-11T11:40:31;5.70;;;4.00;;
4806;SDS011;2417;52.482;13.432;2022-08-11T11:42:59;7.60;;;3.80;;
4806;SDS011;2417;52.482;13.432;2022-08-11T11:45:27;7.43;;;3.20;;
4806;SDS011;2417;52.482;13.432;2022-08-11T11:47:56;12.37;;;4.47;;
4806;SDS011;2417;52.482;13.432;2022-08-11T11:50:26;5.80;;;3.83;;
4806;SDS011;2417;52.482;13.432;2022-08-11T11:53:01;12.43;;;4.10;;
4806;SDS011;2417;52.482;13.432;2022-08-11T11:55:30;6.90;;;3.00;;
4806;SDS011;2417;52.482;13.432;2022-08-11T11:57:59;6.50;;;4.10;;
4806;SDS011;2417;52.482;13.432;2022-08-11T12:00:47;9.63;;;3.50;;
4806;SDS011;2417;52.482;13.432;2022-08-11T12:03:34;10.50;;;3.47;;
4806;SDS011;2417;52.482;13.432;2022-08-11T12:06:03;8.40;;;2.93;;
4806;SDS011;2417;52.482;13.432;2022-08-11T12:08:32;4.90;;;2.67;;
4806;SDS011;2417;52.482;13.432;2022-08-11T12:11:02;7.43;;;3.10;;
4806;SDS011;2417;52.482;13.432;2022-08-11T12:13:48;4.67;;;2.57;;
4806;SDS011;2417;52.482;13.432;2022-08-11T12:16:17;4.63;;;2.77;;
4806;SDS011;2417;52.482;13.432;2022-08-11T12:19:02;6.10;;;2.77;;
4806;SDS011;2417;52.482;13.432;2022-08-11T12:21:33;14.83;;;3.83;;
4806;SDS011;2417;52.482;13.432;2022-08-11T12:24:03;10.60;;;3.97;;
4806;SDS011;2417;52.482;13.432;2022-08-11T12:26:55;9.93;;;4.87;;
4806;SDS011;2417;52.482;13.432;2022-08-11T12:29:44;13.30;;;4.10;;
4806;SDS011;2417;52.482;13.432;2022-08-11T12:32:20;9.20;;;4.87;;
4806;SDS011;2417;52.482;13.432;2022-08-11T12:34:49;9.30;;;3.47;;
4806;SDS011;2417;52.482;13.432;2022-08-11T12:37:19;12.97;;;4.33;;
4806;SDS011;2417;52.482;13.432;2022-08-11T12:39:51;5.73;;;2.33;;
4806;SDS011;2417;52.482;13.432;2022-08-11T12:42:57;12.53;;;3.60;;
4806;SDS011;2417;52.482;13.432;2022-08-11T12:45:47;4.77;;;2.90;;
4806;SDS011;2417;52.482;13.432;2022-08-11T12:48:18;6.00;;;2.33;;
4806;SDS011;2417;52.482;13.432;2022-08-11T12:51:24;9.93;;;4.07;;
4806;SDS011;2417;52.482;13.432;2022-08-11T12:54:32;10.63;;;3.47;;
4806;SDS011;2417;52.482;13.432;2022-08-11T12:57:03;4.50;;;2.60;;
4806;SDS011;2417;52.482;13.432;2022-08-11T13:00:03;11.50;;;4.03;;
4806;SDS011;2417;52.482;13.432;2022-08-11T13:02:50;4.40;;;2.10;;
4806;SDS011;2417;52.482;13.432;2022-08-11T13:05:37;6.33;;;3.13;;
4806;SDS011;2417;52.482;13.432;2022-08-11T13:08:11;9.47;;;2.67;;
4806;SDS011;2417;52.482;13.432;2022-08-11T13:10:41;6.00;;;4.03;;
4806;SDS011;2417;52.482;13.432;2022-08-11T13:13:28;13.23;;;3.00;;
4806;SDS011;2417;52.482;13.432;2022-08-11T13:16:16;6.63;;;2.57;;
4806;SDS011;2417;52.482;13.432;2022-08-11T13:18:45;8.17;;;2.87;;
4806;SDS011;2417;52.482;13.432;2022-08-11T13:21:13;6.67;;;3.23;;
4806;SDS011;2417;52.482;13.432;2022-08-11T13:23:48;7.00;;;3.17;;
4806;SDS011;2417;52.482;13.432;2022-08-11T13:26:31;12.43;;;3.20;;
4806;SDS011;2417;52.482;13.432;2022-08-11T13:29:15;11.63;;;3.90;;
4806;SDS011;2417;52.482;13.432;2022-08-11T13:31:44;6.20;;;3.13;;
4806;SDS011;2417;52.482;13.432;2022-08-11T13:34:13;6.40;;;2.20;;
4806;SDS011;2417;52.482;13.432;2022-08-11T13:36:42;5.43;;;3.27;;
4806;SDS011;2417;52.482;13.432;2022-08-11T13:39:10;6.03;;;4.10;;
4806;SDS011;2417;52.482;13.432;2022-08-11T13:41:39;13.20;;;2.80;;
4806;SDS011;2417;52.482;13.432;2022-08-11T13:44:10;5.13;;;2.77;;
4806;SDS011;2417;52.482;13.432;2022-08-11T13:46:43;8.00;;;2.30;;
4806;SDS011;2417;52.482;13.432;2022-08-11T13:49:11;11.97;;;2.50;;
4806;SDS011;2417;52.482;13.432;2022-08-11T13:51:42;5.97;;;2.60;;
4806;SDS011;2417;52.482;13.432;2022-08-11T13:54:11;6.70;;;2.10;;
4806;SDS011;2417;52.482;13.432;2022-08-11T13:56:44;9.97;;;2.80;;
4806;SDS011;2417;52.482;13.432;2022-08-11T13:59:14;4.43;;;2.40;;
4806;SDS011;2417;52.482;13.432;2022-08-11T14:01:46;9.90;;;2.53;;
4806;SDS011;2417;52.482;13.432;2022-08-11T14:04:36;8.40;;;2.90;;
4806;SDS011;2417;52.482;13.432;2022-08-11T14:07:06;8.57;;;3.80;;
4806;SDS011;2417;52.482;13.432;2022-08-11T14:09:37;9.73;;;2.73;;
4806;SDS011;2417;52.482;13.432;2022-08-11T14:12:07;9.60;;;2.63;;
4806;SDS011;2417;52.482;13.432;2022-08-11T14:14:55;5.40;;;2.40;;
4806;SDS011;2417;52.482;13.432;2022-08-11T14:17:34;9.30;;;3.30;;
4806;SDS011;2417;52.482;13.432;2022-08-11T14:20:15;10.43;;;3.30;;
4806;SDS011;2417;52.482;13.432;2022-08-11T14:23:03;9.00;;;5.10;;
4806;SDS011;2417;52.482;13.432;2022-08-11T14:25:30;7.50;;;3.63;;
4806;SDS011;2417;52.482;13.432;2022-08-11T14:28:19;7.40;;;3.30;;
4806;SDS011;2417;52.482;13.432;2022-08-11T14:31:01;7.50;;;2.50;;
4806;SDS011;2417;52.482;13.432;2022-08-11T14:33:32;6.73;;;3.20;;
4806;SDS011;2417;52.482;13.432;2022-08-11T14:36:21;6.17;;;2.70;;
4806;SDS011;2417;52.482;13.432;2022-08-11T14:38:50;4.27;;;2.30;;
4806;SDS011;2417;52.482;13.432;2022-08-11T14:41:19;18.57;;;10.23;;
4806;SDS011;2417;52.482;13.432;2022-08-11T14:44:25;10.80;;;1.87;;
4806;SDS011;2417;52.482;13.432;2022-08-11T14:47:11;7.20;;;3.17;;
4806;SDS011;2417;52.482;13.432;2022-08-11T14:49:51;6.90;;;2.30;;
4806;SDS011;2417;52.482;13.432;2022-08-11T14:52:37;7.17;;;2.60;;
4806;SDS011;2417;52.482;13.432;2022-08-11T14:55:05;15.03;;;3.77;;
4806;SDS011;2417;52.482;13.432;2022-08-11T14:57:51;5.03;;;1.90;;
4806;SDS011;2417;52.482;13.432;2022-08-11T15:00:22;9.77;;;2.47;;
4806;SDS011;2417;52.482;13.432;2022-08-11T15:02:50;5.17;;;3.23;;
4806;SDS011;2417;52.482;13.432;2022-08-11T15:05:43;5.30;;;2.63;;
4806;SDS011;2417;52.482;13.432;2022-08-11T15:08:25;6.93;;;2.90;;
4806;SDS011;2417;52.482;13.432;2022-08-11T15:11:08;8.57;;;2.70;;
4806;SDS011;2417;52.482;13.432;2022-08-11T15:13:58;19.83;;;2.10;;
4806;SDS011;2417;52.482;13.432;2022-08-11T15:16:27;10.43;;;2.03;;
4806;SDS011;2417;52.482;13.432;2022-08-11T15:19:12;12.20;;;2.50;;
4806;SDS011;2417;52.482;13.432;2022-08-11T15:21:42;4.50;;;2.43;;
4806;SDS011;2417;52.482;13.432;2022-08-11T15:24:28;5.50;;;2.40;;
4806;SDS011;2417;52.482;13.432;2022-08-11T15:26:56;11.90;;;3.90;;
4806;SDS011;2417;52.482;13.432;2022-08-11T15:29:42;8.70;;;2.53;;
4806;SDS011;2417;52.482;13.432;2022-08-11T15:32:30;4.80;;;2.70;;
4806;SDS011;2417;52.482;13.432;2022-08-11T15:35:16;10.90;;;4.40;;
4806;SDS011;2417;52.482;13.432;2022-08-11T15:38:06;6.67;;;2.20;;
4806;SDS011;2417;52.482;13.432;2022-08-11T15:40:38;11.13;;;3.33;;
4806;SDS011;2417;52.482;13.432;2022-08-11T15:43:24;5.60;;;2.20;;
4806;SDS011;2417;52.482;13.432;2022-08-11T15:46:11;6.80;;;2.00;;
4806;SDS011;2417;52.482;13.432;2022-08-11T15:48:40;6.20;;;3.10;;
4806;SDS011;2417;52.482;13.432;2022-08-11T15:51:10;9.63;;;3.67;;
4806;SDS011;2417;52.482;13.432;2022-08-11T15:53:41;8.23;;;2.80;;
4806;SDS011;2417;52.482;13.432;2022-08-11T15:56:22;5.30;;;2.30;;
4806;SDS011;2417;52.482;13.432;2022-08-11T15:58:51;8.50;;;3.17;;
4806;SDS011;2417;52.482;13.432;2022-08-11T16:01:58;8.73;;;2.10;;
4806;SDS011;2417;52.482;13.432;2022-08-11T16:04:53;7.63;;;3.03;;
4806;SDS011;2417;52.482;13.432;2022-08-11T16:07:22;5.50;;;2.07;;
4806;SDS011;2417;52.482;13.432;2022-08-11T16:09:56;7.43;;;2.20;;
4806;SDS011;2417;52.482;13.432;2022-08-11T16:12:27;5.63;;;2.43;;
4806;SDS011;2417;52.482;13.432;2022-08-11T16:14:55;4.00;;;1.63;;
4806;SDS011;2417;52.482;13.432;2022-08-11T16:17:47;5.77;;;1.97;;
4806;SDS011;2417;52.482;13.432;2022-08-11T16:20:18;5.20;;;1.70;;
4806;SDS011;2417;52.482;13.432;2022-08-11T16:22:47;5.40;;;2.50;;
4806;SDS011;2417;52.482;13.432;2022-08-11T16:25:32;7.50;;;2.90;;
4806;SDS011;2417;52.482;13.432;2022-08-11T16:28:20;6.17;;;2.43;;
4806;SDS011;2417;52.482;13.432;2022-08-11T16:30:48;7.20;;;2.20;;
4806;SDS011;2417;52.482;13.432;2022-08-11T16:33:16;7.87;;;2.30;;
4806;SDS011;2417;52.482;13.432;2022-08-11T16:36:05;15.43;;;3.07;;
4806;SDS011;2417;52.482;13.432;2022-08-11T16:38:52;15.07;;;6.90;;
4806;SDS011;2417;52.482;13.432;2022-08-11T16:41:22;8.67;;;3.07;;
4806;SDS011;2417;52.482;13.432;2022-08-11T16:44:04;6.00;;;2.50;;
4806;SDS011;2417;52.482;13.432;2022-08-11T16:47:03;15.60;;;2.90;;